Time;durP1;ratioP1;P1;durP2;ratioP2;P2;SDS_P1;SDS_P2;PMS_P1;PMS_P2;Temp;Humidity;BMP_temperature;BMP_pressure;BME280_temperature;BME280_humidity;BME280_pressure;Samples;Min_cycle;Max_cycle;Signal;HPM_P1;HPM_P2
2023/08/14 00:01:44;;;;;;;14.47;13.57;;;19.60;99.90;;;;;;5014525;28;20215;-78
2023/08/14 00:04:11;;;;;;;7.60;7.00;;;19.50;99.90;;;;;;5012721;28;20224;-78
2023/08/14 00:06:39;;;;;;;11.33;10.47;;;19.50;99.90;;;;;;5009190;28;20209;-79
2023/08/14 00:09:06;;;;;;;11.00;10.10;;;19.50;99.90;;;;;;5003554;28;20196;-78
2023/08/14 00:11:33;;;;;;;13.47;12.53;;;19.50;99.90;;;;;;5014253;28;20218;-79
2023/08/14 00:14:00;;;;;;;13.73;12.83;;;19.50;99.90;;;;;;5014100;28;20203;-78
2023/08/14 00:16:27;;;;;;;13.27;12.30;;;19.40;99.90;;;;;;5012933;28;20231;-78
2023/08/14 00:18:54;;;;;;;8.00;7.27;;;19.40;99.90;;;;;;5012942;28;20326;-78
2023/08/14 00:21:21;;;;;;;8.27;7.57;;;19.40;99.90;;;;;;5012537;28;20223;-78
2023/08/14 00:23:49;;;;;;;7.23;5.80;;;19.40;99.90;;;;;;5012500;28;20722;-78
2023/08/14 00:26:17;;;;;;;7.07;6.43;;;19.40;99.90;;;;;;5013875;28;20698;-78
2023/08/14 00:28:44;;;;;;;6.13;5.63;;;19.40;99.90;;;;;;5014284;28;20215;-78
2023/08/14 00:31:10;;;;;;;6.77;6.07;;;19.40;99.90;;;;;;5012497;28;20244;-78
2023/08/14 00:33:37;;;;;;;9.13;8.40;;;19.40;99.90;;;;;;5013766;28;20196;-78
2023/08/14 00:36:06;;;;;;;10.47;9.77;;;19.40;99.90;;;;;;5012801;28;20713;-79
2023/08/14 00:38:33;;;;;;;21.90;20.33;;;19.40;99.90;;;;;;5013742;28;20191;-78
2023/08/14 00:41:01;;;;;;;7.30;6.60;;;19.40;99.90;;;;;;5014069;28;20598;-78
2023/08/14 00:43:28;;;;;;;6.10;5.50;;;19.40;99.90;;;;;;5011995;28;20626;-78
2023/08/14 00:45:56;;;;;;;6.80;6.20;;;19.50;99.90;;;;;;5012533;28;20199;-77
2023/08/14 00:48:24;;;;;;;7.80;7.10;;;19.50;99.90;;;;;;5012601;28;20231;-79
2023/08/14 00:50:52;;;;;;;7.27;6.67;;;19.50;99.90;;;;;;5013568;28;20231;-79
2023/08/14 00:53:20;;;;;;;7.20;6.50;;;19.50;99.90;;;;;;5004070;28;20615;-78
2023/08/14 00:55:47;;;;;;;8.73;7.77;;;19.50;99.90;;;;;;5005492;28;20195;-79
2023/08/14 00:58:16;;;;;;;6.70;6.03;;;19.50;99.90;;;;;;5004632;28;20195;-78
2023/08/14 01:00:44;;;;;;;7.57;6.10;;;19.50;99.90;;;;;;5007339;28;20674;-78
2023/08/14 01:03:11;;;;;;;7.27;6.43;;;19.60;99.90;;;;;;5011100;28;20198;-78
2023/08/14 01:05:38;;;;;;;6.63;6.03;;;19.60;99.90;;;;;;5008145;28;20207;-78
2023/08/14 01:08:06;;;;;;;5.97;5.43;;;19.60;99.90;;;;;;5012889;28;20200;-78
2023/08/14 01:10:45;;;;;;;6.80;6.20;;;19.60;99.90;;;;;;5011999;28;20219;-79
2023/08/14 01:13:19;;;;;;;7.03;6.43;;;19.60;99.90;;;;;;5011791;28;20215;-78
2023/08/14 01:15:50;;;;;;;6.90;6.30;;;19.60;99.90;;;;;;5011862;28;20255;-78
2023/08/14 01:18:20;;;;;;;6.37;5.87;;;19.60;99.90;;;;;;5012266;28;20227;-79
2023/08/14 01:21:04;;;;;;;6.63;5.80;;;19.70;99.90;;;;;;5012026;28;20216;-79
2023/08/14 01:23:34;;;;;;;8.30;7.40;;;19.70;99.90;;;;;;5010594;28;20219;-78
2023/08/14 01:26:03;;;;;;;8.63;7.83;;;19.70;99.90;;;;;;5005548;28;20265;-78
2023/08/14 01:28:30;;;;;;;8.97;8.07;;;19.70;99.90;;;;;;5011856;28;20207;-79
2023/08/14 01:30:57;;;;;;;8.53;7.53;;;19.70;99.90;;;;;;5013225;28;20617;-78
2023/08/14 01:33:24;;;;;;;7.80;7.10;;;19.70;99.90;;;;;;5006109;28;20270;-78
2023/08/14 01:36:02;;;;;;;7.93;7.30;;;19.70;99.90;;;;;;5011675;28;20211;-78
2023/08/14 01:38:38;;;;;;;7.90;7.30;;;19.70;99.90;;;;;;5011416;28;20287;-78
2023/08/14 01:41:13;;;;;;;9.20;8.37;;;19.80;99.90;;;;;;5011928;28;20219;-78
2023/08/14 01:43:48;;;;;;;10.93;9.13;;;19.80;99.90;;;;;;5012848;28;20694;-78
2023/08/14 01:46:16;;;;;;;11.20;9.63;;;19.80;99.90;;;;;;5011661;28;20200;-79
2023/08/14 01:48:46;;;;;;;10.53;9.43;;;19.80;99.90;;;;;;5011832;28;20205;-78
2023/08/14 01:51:16;;;;;;;10.03;9.03;;;19.80;99.90;;;;;;5010680;28;20322;-78
2023/08/14 01:53:43;;;;;;;9.57;8.77;;;19.70;99.90;;;;;;5011810;28;20196;-78
2023/08/14 01:56:11;;;;;;;9.60;8.77;;;19.70;99.90;;;;;;5012194;28;20215;-78
2023/08/14 01:58:38;;;;;;;7.03;6.33;;;19.70;99.90;;;;;;5011362;28;20196;-79
2023/08/14 02:01:04;;;;;;;6.40;5.80;;;19.60;99.90;;;;;;5011458;28;20215;-78
2023/08/14 02:03:31;;;;;;;8.03;6.10;;;19.50;99.90;;;;;;5010802;28;20201;-78
2023/08/14 02:05:58;;;;;;;5.70;5.20;;;19.40;99.90;;;;;;5010397;28;20204;-78
2023/08/14 02:08:27;;;;;;;6.60;6.00;;;19.40;99.90;;;;;;5008500;28;20204;-79
2023/08/14 02:10:55;;;;;;;6.40;5.80;;;19.40;99.90;;;;;;5005990;28;20218;-78
2023/08/14 02:13:23;;;;;;;6.40;5.90;;;19.30;99.90;;;;;;5011210;28;20208;-78
2023/08/14 02:15:50;;;;;;;5.93;5.43;;;19.30;99.90;;;;;;5010776;28;20583;-78
2023/08/14 02:18:19;;;;;;;5.63;5.13;;;19.30;99.90;;;;;;5012158;28;20319;-79
2023/08/14 02:20:46;;;;;;;7.57;6.97;;;19.30;99.90;;;;;;5010994;28;20601;-78
2023/08/14 02:23:13;;;;;;;6.37;5.87;;;19.30;99.90;;;;;;5010407;28;20196;-78
2023/08/14 02:25:41;;;;;;;7.97;7.27;;;19.30;99.90;;;;;;5010055;28;20223;-78
2023/08/14 02:28:08;;;;;;;6.03;5.40;;;19.30;99.90;;;;;;5011074;28;20207;-79
2023/08/14 02:30:38;;;;;;;5.73;5.23;;;19.30;99.90;;;;;;5008462;28;20693;-78
2023/08/14 02:33:06;;;;;;;6.10;5.60;;;19.30;99.90;;;;;;5012016;28;20211;-78
2023/08/14 02:35:34;;;;;;;6.17;5.57;;;19.30;99.90;;;;;;5010873;28;20203;-78
2023/08/14 02:38:01;;;;;;;8.13;6.30;;;19.30;99.90;;;;;;5011072;28;20298;-79
2023/08/14 02:40:28;;;;;;;8.27;7.57;;;19.30;99.90;;;;;;5010531;28;20258;-77
2023/08/14 02:43:03;;;;;;;6.50;5.90;;;19.20;99.90;;;;;;5011755;28;20537;-79
2023/08/14 02:45:30;;;;;;;9.67;8.87;;;19.20;99.90;;;;;;5003558;28;20223;-78
2023/08/14 02:47:58;;;;;;;12.30;11.50;;;19.10;99.90;;;;;;5006270;28;20203;-79
2023/08/14 02:50:25;;;;;;;8.50;7.80;;;19.10;99.90;;;;;;5011643;28;20231;-78
2023/08/14 02:52:52;;;;;;;6.53;6.00;;;19.10;99.90;;;;;;5007191;28;20200;-78
2023/08/14 02:55:19;;;;;;;11.03;10.23;;;19.10;99.90;;;;;;5007748;28;20242;-79
2023/08/14 02:57:45;;;;;;;6.97;6.47;;;19.10;99.90;;;;;;5010748;28;20290;-78
2023/08/14 03:00:13;;;;;;;6.87;6.13;;;19.10;99.90;;;;;;5010535;28;20224;-78
2023/08/14 03:02:40;;;;;;;6.53;5.97;;;19.10;99.90;;;;;;5006414;28;20725;-78
2023/08/14 03:05:09;;;;;;;6.57;6.00;;;19.10;99.90;;;;;;5010552;28;20229;-79
2023/08/14 03:07:35;;;;;;;6.33;5.83;;;19.00;99.90;;;;;;5011479;28;20195;-78
2023/08/14 03:10:02;;;;;;;8.10;7.40;;;19.00;99.90;;;;;;5010438;28;20218;-78
2023/08/14 03:12:29;;;;;;;8.90;8.20;;;19.00;99.90;;;;;;5010499;28;20207;-78
2023/08/14 03:14:56;;;;;;;6.80;6.20;;;19.00;99.90;;;;;;5010989;28;20278;-78
2023/08/14 03:17:23;;;;;;;7.27;6.77;;;19.00;99.90;;;;;;5010199;28;20207;-78
2023/08/14 03:19:49;;;;;;;9.00;8.33;;;18.90;99.90;;;;;;5010841;28;20206;-78
2023/08/14 03:22:18;;;;;;;6.20;5.60;;;18.90;99.90;;;;;;5000772;28;20204;-78
2023/08/14 03:24:45;;;;;;;6.20;5.70;;;18.90;99.90;;;;;;5010329;28;20218;-77
2023/08/14 03:27:12;;;;;;;14.93;14.00;;;18.90;99.90;;;;;;5013062;28;20301;-78
2023/08/14 03:29:38;;;;;;;6.67;6.17;;;18.90;99.90;;;;;;5018114;28;20282;-83
2023/08/14 03:32:06;;;;;;;6.33;5.80;;;18.90;99.90;;;;;;5017988;28;20311;-84
2023/08/14 03:34:33;;;;;;;6.10;5.60;;;18.80;99.90;;;;;;5007207;28;20200;-81
2023/08/14 03:37:00;;;;;;;5.90;5.40;;;18.80;99.90;;;;;;5030507;28;20226;-80
2023/08/14 03:39:28;;;;;;;5.93;5.53;;;18.70;99.90;;;;;;5004024;28;20233;-80
2023/08/14 03:41:56;;;;;;;7.10;6.50;;;18.70;99.90;;;;;;5011473;28;20866;-81
2023/08/14 03:44:25;;;;;;;6.63;6.13;;;18.60;99.90;;;;;;5009514;28;20221;-81
2023/08/14 03:46:52;;;;;;;7.13;6.53;;;18.60;99.90;;;;;;5010127;28;20214;-80
2023/08/14 03:49:19;;;;;;;6.90;6.30;;;18.60;99.90;;;;;;5009328;28;20203;-81
2023/08/14 03:51:46;;;;;;;6.33;5.83;;;18.50;99.90;;;;;;5004764;28;20228;-82
2023/08/14 03:54:12;;;;;;;7.73;7.23;;;18.50;99.90;;;;;;5013915;28;20202;-81
2023/08/14 03:56:43;;;;;;;5.77;5.30;;;18.50;99.90;;;;;;5004787;28;20205;-81
2023/08/14 03:59:10;;;;;;;6.20;5.70;;;18.50;99.90;;;;;;5013104;28;20579;-80
2023/08/14 04:01:42;;;;;;;9.37;8.77;;;18.50;99.90;;;;;;5009705;28;20222;-80
2023/08/14 04:04:19;;;;;;;6.50;5.90;;;18.40;99.90;;;;;;5008236;28;20676;-81
2023/08/14 04:06:54;;;;;;;6.40;5.90;;;18.50;99.90;;;;;;5006907;28;20193;-84
2023/08/14 04:09:21;;;;;;;6.60;6.10;;;18.50;99.90;;;;;;5010869;28;20292;-82
2023/08/14 04:11:49;;;;;;;6.50;5.90;;;18.40;99.90;;;;;;5018188;28;20214;-83
2023/08/14 04:14:16;;;;;;;6.80;6.30;;;18.40;99.90;;;;;;5017773;28;20228;-81
2023/08/14 04:16:43;;;;;;;6.90;6.40;;;18.40;99.90;;;;;;5015066;28;20266;-82
2023/08/14 04:19:18;;;;;;;7.10;6.50;;;18.40;99.90;;;;;;5011832;28;20688;-85
2023/08/14 04:21:45;;;;;;;7.70;7.10;;;18.40;99.90;;;;;;5012107;28;20700;-83
2023/08/14 04:24:12;;;;;;;7.93;7.33;;;18.40;99.90;;;;;;5017206;28;20213;-81
2023/08/14 04:26:39;;;;;;;8.10;7.50;;;18.40;99.90;;;;;;5017034;28;20288;-80
2023/08/14 04:29:10;;;;;;;9.37;8.63;;;18.50;99.90;;;;;;5015136;28;20203;-82
2023/08/14 04:31:38;;;;;;;8.80;8.20;;;18.50;99.90;;;;;;5015963;28;20229;-83
2023/08/14 04:34:05;;;;;;;9.37;8.67;;;18.50;99.90;;;;;;5006714;28;20691;-79
2023/08/14 04:36:35;;;;;;;9.30;8.60;;;18.50;99.90;;;;;;5011946;28;20197;-80
2023/08/14 04:39:03;;;;;;;8.50;7.90;;;18.50;99.90;;;;;;5014079;28;20222;-79
2023/08/14 04:41:30;;;;;;;8.40;7.80;;;18.50;99.90;;;;;;5014177;28;20244;-78
2023/08/14 04:43:57;;;;;;;9.30;8.60;;;18.60;99.90;;;;;;5011663;28;20198;-79
2023/08/14 04:46:33;;;;;;;8.63;7.93;;;18.60;99.90;;;;;;5014065;28;20734;-80
2023/08/14 04:49:01;;;;;;;8.50;7.90;;;18.60;99.90;;;;;;5013962;28;20240;-79
2023/08/14 04:51:29;;;;;;;8.53;7.93;;;18.70;99.90;;;;;;5013872;28;20280;-80
2023/08/14 04:53:57;;;;;;;8.27;7.67;;;18.70;99.90;;;;;;5013411;28;20194;-80
2023/08/14 04:56:25;;;;;;;8.27;7.63;;;18.70;99.90;;;;;;5014860;28;20205;-80
2023/08/14 04:58:53;;;;;;;8.80;8.10;;;18.70;99.90;;;;;;5011126;28;20203;-78
2023/08/14 05:01:21;;;;;;;8.77;8.17;;;18.80;99.90;;;;;;5014391;28;20273;-79
2023/08/14 05:03:54;;;;;;;9.20;8.40;;;18.80;99.90;;;;;;5013206;28;20205;-80
2023/08/14 05:06:21;;;;;;;8.97;8.27;;;18.90;99.90;;;;;;5014781;28;20231;-80
2023/08/14 05:08:48;;;;;;;9.40;8.70;;;18.90;99.90;;;;;;5013638;28;20256;-80
2023/08/14 05:11:14;;;;;;;9.90;9.13;;;19.00;99.90;;;;;;5013850;28;20218;-80
2023/08/14 05:13:44;;;;;;;9.20;8.50;;;19.00;99.90;;;;;;5013905;28;20210;-80
2023/08/14 05:16:11;;;;;;;9.20;8.50;;;19.00;99.90;;;;;;5014909;28;20666;-80
2023/08/14 05:18:39;;;;;;;10.03;9.33;;;19.00;99.90;;;;;;5015092;28;20728;-78
2023/08/14 05:21:07;;;;;;;10.03;9.33;;;19.10;99.90;;;;;;5014619;28;20211;-80
2023/08/14 05:23:34;;;;;;;9.57;8.87;;;19.20;99.90;;;;;;5014242;28;20199;-79
2023/08/14 05:26:01;;;;;;;9.30;8.67;;;19.30;99.90;;;;;;5015707;28;20238;-80
2023/08/14 05:28:28;;;;;;;11.00;10.20;;;19.40;99.90;;;;;;5014459;28;20687;-80
2023/08/14 05:30:54;;;;;;;9.53;8.83;;;19.50;99.90;;;;;;5015606;28;20219;-79
2023/08/14 05:33:21;;;;;;;9.97;9.27;;;19.70;99.90;;;;;;5013443;28;20225;-80
2023/08/14 05:35:49;;;;;;;9.40;8.60;;;19.90;99.90;;;;;;5013235;28;20196;-80
2023/08/14 05:38:17;;;;;;;9.73;8.93;;;20.00;99.90;;;;;;5014465;28;20199;-80
2023/08/14 05:40:44;;;;;;;8.17;7.57;;;20.20;99.90;;;;;;5014701;28;20227;-80
2023/08/14 05:43:12;;;;;;;10.47;9.53;;;20.30;99.90;;;;;;5014161;28;20208;-80
2023/08/14 05:45:42;;;;;;;10.90;10.10;;;20.50;99.90;;;;;;5015793;28;20227;-79
2023/08/14 05:48:10;;;;;;;14.03;13.03;;;20.60;99.90;;;;;;5016934;28;20494;-80
2023/08/14 05:50:37;;;;;;;6.50;5.97;;;20.60;99.90;;;;;;5014020;28;20232;-79
2023/08/14 05:53:06;;;;;;;6.80;6.20;;;20.70;99.90;;;;;;5011778;28;20643;-79
2023/08/14 05:55:47;;;;;;;8.10;7.40;;;20.70;99.90;;;;;;4996727;28;20200;-84
2023/08/14 05:58:14;;;;;;;9.50;8.90;;;20.70;99.90;;;;;;5005184;28;20201;-84
2023/08/14 06:00:41;;;;;;;7.60;7.00;;;20.80;99.90;;;;;;5010401;28;20714;-83
2023/08/14 06:03:08;;;;;;;5.80;5.40;;;20.90;99.90;;;;;;5012247;28;20478;-82
2023/08/14 06:05:36;;;;;;;9.57;8.80;;;21.20;99.90;;;;;;5010457;28;20220;-83
2023/08/14 06:08:03;;;;;;;6.73;6.07;;;21.30;99.90;;;;;;5009446;28;20279;-83
2023/08/14 06:10:30;;;;;;;6.90;6.30;;;21.40;99.90;;;;;;5004984;28;20225;-84
2023/08/14 06:12:58;;;;;;;13.47;12.67;;;21.40;99.90;;;;;;5026300;28;20197;-83
2023/08/14 06:15:25;;;;;;;11.87;11.07;;;21.40;99.90;;;;;;5009748;28;20197;-83
2023/08/14 06:17:57;;;;;;;12.80;11.90;;;21.60;99.90;;;;;;5010954;28;20201;-79
2023/08/14 06:20:25;;;;;;;6.20;5.60;;;21.80;99.90;;;;;;5005456;28;20217;-84
2023/08/14 06:22:51;;;;;;;13.50;12.60;;;21.90;99.90;;;;;;5008544;28;20258;-83
2023/08/14 06:25:19;;;;;;;6.50;6.00;;;22.10;99.90;;;;;;5008464;28;20220;-84
2023/08/14 06:27:46;;;;;;;6.60;6.00;;;22.20;99.90;;;;;;5026097;28;20208;-83
2023/08/14 06:30:14;;;;;;;5.93;5.53;;;22.30;99.90;;;;;;4995703;28;20221;-83
2023/08/14 06:32:41;;;;;;;6.40;5.90;;;22.30;99.90;;;;;;5009035;28;20683;-82
2023/08/14 06:35:09;;;;;;;5.93;5.43;;;22.30;99.90;;;;;;5009776;28;20196;-83
2023/08/14 06:37:36;;;;;;;7.30;6.70;;;22.30;99.90;;;;;;5007413;28;20283;-83
2023/08/14 06:40:04;;;;;;;6.10;5.60;;;22.20;99.90;;;;;;5009558;28;20225;-84
2023/08/14 06:42:31;;;;;;;5.57;5.07;;;22.10;99.90;;;;;;4997917;28;20239;-84
2023/08/14 06:44:58;;;;;;;6.53;6.03;;;22.10;99.90;;;;;;4997166;28;20279;-83
2023/08/14 06:47:26;;;;;;;6.80;6.20;;;22.20;99.90;;;;;;5010358;28;20675;-85
2023/08/14 06:49:53;;;;;;;7.83;7.03;;;22.30;99.90;;;;;;5013501;28;20199;-84
2023/08/14 06:52:20;;;;;;;5.70;5.20;;;22.40;99.90;;;;;;5010737;28;20204;-84
2023/08/14 06:54:47;;;;;;;8.80;8.10;;;22.50;99.90;;;;;;4997745;28;20257;-84
2023/08/14 06:57:14;;;;;;;6.27;4.80;;;22.60;99.90;;;;;;5006548;28;20193;-82
2023/08/14 06:59:42;;;;;;;7.70;7.10;;;22.70;99.90;;;;;;5009825;28;20250;-84
2023/08/14 07:02:09;;;;;;;6.97;6.23;;;22.80;99.90;;;;;;5005262;28;20207;-83
2023/08/14 07:04:37;;;;;;;8.90;8.00;;;23.00;99.90;;;;;;5014688;28;20292;-85
2023/08/14 07:07:04;;;;;;;5.30;4.63;;;23.10;99.90;;;;;;5012615;28;20965;-84
2023/08/14 07:09:31;;;;;;;6.87;6.33;;;23.20;99.90;;;;;;5010726;28;20196;-84
2023/08/14 07:11:58;;;;;;;8.30;7.68;;;23.20;99.90;;;;;;5008706;28;20483;-85
2023/08/14 07:14:25;;;;;;;7.93;7.33;;;23.30;99.90;;;;;;5007594;28;20278;-85
2023/08/14 07:16:56;;;;;;;5.47;5.07;;;23.40;99.90;;;;;;5014435;28;20201;-87
2023/08/14 07:19:23;;;;;;;6.40;4.77;;;23.40;99.90;;;;;;5008660;28;20201;-86
2023/08/14 07:21:51;;;;;;;5.30;4.80;;;23.60;99.90;;;;;;5040484;22;20453;-86
2023/08/14 07:24:20;;;;;;;9.70;8.87;;;23.70;99.90;;;;;;5024412;28;20203;-85
2023/08/14 07:26:47;;;;;;;9.93;9.23;;;23.70;99.90;;;;;;5022557;28;20482;-84
2023/08/14 07:29:14;;;;;;;6.67;6.13;;;23.90;99.90;;;;;;5014787;28;20216;-86
2023/08/14 07:31:47;;;;;;;10.57;9.77;;;24.10;99.90;;;;;;5020864;28;20224;-83
2023/08/14 07:34:48;;;;;;;11.20;10.50;;;24.50;99.90;;;;;;5025245;28;20667;-87
2023/08/14 07:37:17;;;;;;;10.80;10.20;;;24.80;99.90;;;;;;5031146;28;20224;-87
2023/08/14 07:39:44;;;;;;;10.00;8.70;;;25.10;99.90;;;;;;5011308;28;20204;-88
2023/08/14 07:42:15;;;;;;;6.37;5.87;;;25.60;99.90;;;;;;5025758;28;20291;-88
2023/08/14 07:44:42;;;;;;;11.40;10.60;;;26.10;99.90;;;;;;5010696;28;20208;-83
2023/08/14 07:47:13;;;;;;;11.10;10.40;;;26.50;99.90;;;;;;5013552;28;20270;-82
2023/08/14 07:49:40;;;;;;;11.73;10.83;;;26.70;99.90;;;;;;5014662;28;20204;-79
2023/08/14 07:52:07;;;;;;;5.57;5.07;;;27.10;99.90;;;;;;5016444;28;20215;-85
2023/08/14 07:54:35;;;;;;;5.20;4.67;;;27.30;99.90;;;;;;5008006;28;20201;-85
2023/08/14 07:57:02;;;;;;;7.50;6.87;;;27.50;99.90;;;;;;5012435;28;20197;-85
2023/08/14 07:59:29;;;;;;;6.23;5.00;;;27.80;99.90;;;;;;5013414;28;20231;-85
2023/08/14 08:01:56;;;;;;;5.90;4.90;;;28.20;99.90;;;;;;5012898;28;20291;-85
2023/08/14 08:04:23;;;;;;;5.40;5.00;;;28.10;99.90;;;;;;5010582;28;20211;-85
2023/08/14 08:06:50;;;;;;;6.23;4.87;;;28.20;99.90;;;;;;5015145;28;20318;-85
2023/08/14 08:09:18;;;;;;;6.30;5.73;;;28.40;99.90;;;;;;5020704;28;20206;-88
2023/08/14 08:11:50;;;;;;;5.17;4.77;;;28.70;99.90;;;;;;5013050;28;20228;-79
2023/08/14 08:14:17;;;;;;;5.87;5.03;;;28.90;99.90;;;;;;5023349;28;20196;-79
2023/08/14 08:16:44;;;;;;;6.17;5.57;;;28.80;99.90;;;;;;5012816;28;20624;-79
2023/08/14 08:19:11;;;;;;;7.93;7.23;;;28.80;99.90;;;;;;5012101;28;20196;-79
2023/08/14 08:21:38;;;;;;;11.07;10.03;;;29.00;99.90;;;;;;5017140;28;20232;-80
2023/08/14 08:24:06;;;;;;;10.83;10.13;;;29.20;99.90;;;;;;5016440;28;20189;-80
2023/08/14 08:26:33;;;;;;;10.90;10.20;;;29.50;99.90;;;;;;5017289;28;20233;-80
2023/08/14 08:29:01;;;;;;;11.03;10.33;;;29.60;99.90;;;;;;5021394;28;20200;-83
2023/08/14 08:31:28;;;;;;;10.63;9.93;;;29.80;99.90;;;;;;5022675;28;20609;-82
2023/08/14 08:33:55;;;;;;;11.07;10.27;;;30.00;99.90;;;;;;5013380;28;20220;-83
2023/08/14 08:36:22;;;;;;;11.03;10.20;;;30.10;99.90;;;;;;5023833;28;20254;-81
2023/08/14 08:38:52;;;;;;;10.93;10.23;;;30.10;99.90;;;;;;5012405;28;20574;-85
2023/08/14 08:41:25;;;;;;;10.93;10.13;;;30.10;99.90;;;;;;5012378;28;20285;-79
2023/08/14 08:43:59;;;;;;;10.20;9.50;;;30.20;99.90;;;;;;5012890;28;20204;-82
2023/08/14 08:46:31;;;;;;;10.90;10.00;;;30.10;99.90;;;;;;5012988;28;20269;-82
2023/08/14 08:48:58;;;;;;;10.23;9.53;;;30.00;99.90;;;;;;5013234;28;20208;-80
2023/08/14 08:51:25;;;;;;;10.63;9.93;;;30.00;99.90;;;;;;5014829;28;20224;-84
2023/08/14 08:53:52;;;;;;;11.00;10.00;;;29.90;99.90;;;;;;5012470;28;20216;-81
2023/08/14 08:56:20;;;;;;;10.87;10.10;;;29.80;99.90;;;;;;5014941;28;20226;-78
2023/08/14 08:58:47;;;;;;;11.98;11.20;;;30.00;99.90;;;;;;5014239;28;20917;-79
2023/08/14 09:01:14;;;;;;;11.10;10.30;;;30.10;99.90;;;;;;5008181;28;20224;-78
2023/08/14 09:03:42;;;;;;;10.40;9.70;;;30.20;99.90;;;;;;5013671;28;20224;-79
2023/08/14 09:06:09;;;;;;;10.35;9.65;;;30.40;99.90;;;;;;5015649;28;20498;-79
2023/08/14 09:08:36;;;;;;;10.33;9.63;;;30.70;99.90;;;;;;5019723;28;20204;-79
2023/08/14 09:11:03;;;;;;;10.77;9.87;;;30.80;99.90;;;;;;5014934;28;20223;-79
2023/08/14 09:13:30;;;;;;;10.57;9.87;;;30.50;99.90;;;;;;5014816;28;20204;-78
2023/08/14 09:15:57;;;;;;;10.73;9.80;;;30.70;99.90;;;;;;5015050;28;20209;-78
2023/08/14 09:18:24;;;;;;;10.53;9.67;;;31.00;99.90;;;;;;5014429;28;20232;-79
2023/08/14 09:20:52;;;;;;;10.07;9.07;;;31.10;99.90;;;;;;5014377;28;20746;-78
2023/08/14 09:23:19;;;;;;;10.07;9.37;;;31.10;99.90;;;;;;5016645;28;20578;-78
2023/08/14 09:25:46;;;;;;;9.87;9.17;;;31.10;99.90;;;;;;5013717;28;20228;-79
2023/08/14 09:28:13;;;;;;;9.77;9.17;;;31.10;99.90;;;;;;5015987;28;20205;-79
2023/08/14 09:30:41;;;;;;;10.10;9.23;;;31.10;99.90;;;;;;5016491;28;20274;-79
2023/08/14 09:33:09;;;;;;;9.57;8.87;;;31.30;99.90;;;;;;5016789;28;20790;-78
2023/08/14 09:35:36;;;;;;;9.95;9.23;;;31.40;99.90;;;;;;5016906;28;20258;-79
2023/08/14 09:38:05;;;;;;;10.27;9.47;;;31.40;99.90;;;;;;5018088;28;20651;-79
2023/08/14 09:40:33;;;;;;;10.20;9.40;;;31.70;99.90;;;;;;5016978;28;20204;-79
2023/08/14 09:43:01;;;;;;;9.93;9.30;;;31.80;99.90;;;;;;5016719;28;20201;-79
2023/08/14 09:45:29;;;;;;;10.13;9.23;;;31.70;99.90;;;;;;5018312;28;20201;-79
2023/08/14 09:48:00;;;;;;;9.63;9.02;;;31.70;99.90;;;;;;5018668;28;20248;-79
2023/08/14 09:50:29;;;;;;;9.65;8.95;;;32.00;99.90;;;;;;5018375;28;20244;-79
2023/08/14 09:52:58;;;;;;;10.25;9.30;;;32.00;99.90;;;;;;5016781;28;20208;-79
2023/08/14 09:55:28;;;;;;;9.50;8.68;;;32.00;99.90;;;;;;5016694;28;20193;-79
2023/08/14 09:57:55;;;;;;;9.90;9.00;;;31.90;99.90;;;;;;5019196;28;20223;-79
2023/08/14 10:00:22;;;;;;;9.77;9.10;;;31.60;99.90;;;;;;5017746;28;20216;-79
2023/08/14 10:02:49;;;;;;;9.55;8.85;;;31.50;99.90;;;;;;5017658;28;20196;-79
2023/08/14 10:05:18;;;;;;;9.03;8.33;;;31.70;99.90;;;;;;5018504;28;20192;-79
2023/08/14 10:07:45;;;;;;;9.60;8.85;;;31.90;99.90;;;;;;5013131;28;20262;-78
2023/08/14 10:10:14;;;;;;;9.02;8.43;;;31.80;99.90;;;;;;5016076;28;20231;-79
2023/08/14 10:12:46;;;;;;;8.88;8.27;;;32.00;99.90;;;;;;5016164;28;20590;-79
2023/08/14 10:15:17;;;;;;;8.73;8.02;;;32.20;99.90;;;;;;5018102;28;20329;-79
2023/08/14 10:17:50;;;;;;;8.75;8.15;;;32.10;99.90;;;;;;5015686;28;20419;-79
2023/08/14 10:20:18;;;;;;;8.60;7.85;;;32.20;99.90;;;;;;5015446;28;20236;-79
2023/08/14 10:22:47;;;;;;;8.90;8.10;;;32.40;99.90;;;;;;5017838;28;20203;-79
2023/08/14 10:25:15;;;;;;;8.93;7.95;;;32.30;99.90;;;;;;5016606;28;20645;-79
2023/08/14 10:27:43;;;;;;;8.95;8.15;;;32.10;99.90;;;;;;5017197;28;20213;-79
2023/08/14 10:30:11;;;;;;;7.80;7.22;;;31.70;99.90;;;;;;5015199;28;20719;-79
2023/08/14 10:32:39;;;;;;;8.27;7.60;;;31.70;99.90;;;;;;5013135;28;20259;-78
2023/08/14 10:35:08;;;;;;;8.40;7.80;;;31.80;99.90;;;;;;5011961;28;20220;-78
2023/08/14 10:37:43;;;;;;;8.77;8.02;;;32.00;99.90;;;;;;5012702;28;20197;-78
2023/08/14 10:40:18;;;;;;;8.68;7.65;;;32.10;99.90;;;;;;5014030;28;20227;-78
2023/08/14 10:42:47;;;;;;;7.13;6.60;;;31.90;99.90;;;;;;5012224;28;20204;-78
2023/08/14 10:45:17;;;;;;;8.25;7.57;;;32.00;99.90;;;;;;5012735;28;20216;-78
2023/08/14 10:47:44;;;;;;;6.68;6.07;;;32.10;99.90;;;;;;5012075;28;20244;-78
2023/08/14 10:50:16;;;;;;;9.15;8.25;;;32.10;99.90;;;;;;5012509;28;20232;-78
2023/08/14 10:52:46;;;;;;;7.88;7.38;;;32.00;99.90;;;;;;5012294;28;20201;-78
2023/08/14 10:55:17;;;;;;;8.40;7.80;;;31.80;99.90;;;;;;5012280;28;20210;-78
2023/08/14 10:57:47;;;;;;;7.70;7.10;;;31.60;99.90;;;;;;5013737;28;20216;-78
2023/08/14 11:00:23;;;;;;;8.20;7.60;;;31.50;99.90;;;;;;5005396;28;20232;-78
2023/08/14 11:02:51;;;;;;;8.10;7.50;;;31.30;99.90;;;;;;5013985;28;20195;-78
2023/08/14 11:05:18;;;;;;;7.93;7.43;;;31.20;99.90;;;;;;5013365;28;20211;-78
2023/08/14 11:07:57;;;;;;;8.38;7.78;;;31.40;99.90;;;;;;5014054;28;20726;-78
2023/08/14 11:10:26;;;;;;;8.17;7.47;;;31.60;99.90;;;;;;5005080;28;20239;-78
2023/08/14 11:12:56;;;;;;;7.70;7.10;;;31.60;99.90;;;;;;5013368;28;20247;-78
2023/08/14 11:15:24;;;;;;;8.02;7.40;;;31.60;99.90;;;;;;5013257;28;20608;-78
2023/08/14 11:17:51;;;;;;;7.73;7.20;;;31.50;99.90;;;;;;5014195;28;20678;-78
2023/08/14 11:20:19;;;;;;;7.80;7.17;;;31.40;99.90;;;;;;5024971;28;20655;-83
2023/08/14 11:22:46;;;;;;;7.40;6.90;;;31.70;99.90;;;;;;5014942;28;20197;-80
2023/08/14 11:25:14;;;;;;;7.60;7.00;;;31.80;99.90;;;;;;5012201;28;20205;-81
2023/08/14 11:27:41;;;;;;;7.60;7.10;;;31.70;99.90;;;;;;5011863;28;20276;-85
2023/08/14 11:30:10;;;;;;;7.50;7.00;;;31.40;99.90;;;;;;5014891;28;20227;-81
2023/08/14 11:32:37;;;;;;;7.93;7.13;;;31.40;99.90;;;;;;5010180;28;20223;-81
2023/08/14 11:35:05;;;;;;;7.95;7.35;;;31.80;99.90;;;;;;5010484;28;20228;-82
2023/08/14 11:37:32;;;;;;;8.40;7.70;;;32.00;99.90;;;;;;5013499;28;20197;-80
2023/08/14 11:40:04;;;;;;;7.88;7.28;;;32.30;99.90;;;;;;5014496;28;20213;-82
2023/08/14 11:42:31;;;;;;;7.53;7.00;;;32.10;99.90;;;;;;5006791;28;20200;-82
2023/08/14 11:44:58;;;;;;;6.75;6.25;;;32.20;99.90;;;;;;5016460;28;20204;-81
2023/08/14 11:47:26;;;;;;;7.38;6.82;;;32.40;99.90;;;;;;5015748;28;20216;-82
2023/08/14 11:49:55;;;;;;;6.93;6.43;;;32.30;99.90;;;;;;5018052;28;20204;-79
2023/08/14 11:52:22;;;;;;;8.05;7.38;;;31.80;99.90;;;;;;5015863;28;20200;-82
2023/08/14 11:54:49;;;;;;;8.45;7.85;;;31.50;99.90;;;;;;5017881;28;20219;-81
2023/08/14 11:57:16;;;;;;;8.40;7.80;;;31.10;99.90;;;;;;5016135;28;20193;-81
2023/08/14 11:59:44;;;;;;;8.07;7.50;;;30.80;99.90;;;;;;5018209;28;20212;-82
2023/08/14 12:02:11;;;;;;;8.33;7.70;;;30.60;99.90;;;;;;5016349;28;20192;-81
2023/08/14 12:04:40;;;;;;;7.90;7.40;;;30.50;99.90;;;;;;5017279;28;20205;-82
2023/08/14 12:07:07;;;;;;;9.37;8.57;;;30.40;99.90;;;;;;5017099;28;20274;-82
2023/08/14 12:09:36;;;;;;;8.60;7.90;;;30.20;99.90;;;;;;5016337;28;20283;-81
2023/08/14 12:12:03;;;;;;;9.80;9.20;;;30.10;99.90;;;;;;5018105;28;20204;-82
2023/08/14 12:14:38;;;;;;;10.57;9.67;;;30.00;99.90;;;;;;5016409;28;20203;-82
2023/08/14 12:17:08;;;;;;;10.43;9.73;;;29.80;99.90;;;;;;5018244;28;20633;-82
2023/08/14 12:19:35;;;;;;;10.70;9.97;;;29.60;99.90;;;;;;5017608;28;20199;-82
2023/08/14 12:22:03;;;;;;;11.23;10.37;;;29.40;99.90;;;;;;5017072;28;20655;-82
2023/08/14 12:24:38;;;;;;;10.80;10.00;;;29.30;99.90;;;;;;5018453;28;20196;-81
2023/08/14 12:27:05;;;;;;;10.70;9.90;;;29.10;99.90;;;;;;5017995;28;20227;-82
2023/08/14 12:29:32;;;;;;;11.13;10.33;;;28.90;99.90;;;;;;5017148;28;20207;-81
2023/08/14 12:31:59;;;;;;;10.90;10.20;;;28.70;99.90;;;;;;5016975;28;20278;-81
2023/08/14 12:34:27;;;;;;;10.23;9.53;;;28.60;99.90;;;;;;5019506;28;20192;-81
2023/08/14 12:36:53;;;;;;;9.90;9.20;;;28.40;99.90;;;;;;5017834;28;20215;-80
2023/08/14 12:39:21;;;;;;;9.77;9.13;;;28.20;99.90;;;;;;5017054;28;20675;-81
2023/08/14 12:41:48;;;;;;;10.07;9.37;;;28.10;99.90;;;;;;5018196;28;20248;-81
2023/08/14 12:44:30;;;;;;;6.30;5.83;;;28.00;99.90;;;;;;5018936;28;20670;-84
2023/08/14 12:46:57;;;;;;;5.83;5.33;;;27.90;99.90;;;;;;5018736;28;20197;-83
2023/08/14 12:49:24;;;;;;;4.77;4.37;;;27.90;99.90;;;;;;5011607;28;20270;-80